Time;durP1;ratioP1;P1;durP2;ratioP2;P2;SDS_P1;SDS_P2;PMS_P1;PMS_P2;Temp;Humidity;BMP_temperature;BMP_pressure;BME280_temperature;BME280_humidity;BME280_pressure;Samples;Min_cycle;Max_cycle;Signal;HPM_P1;HPM_P2
2023/05/31 00:01:09;;;;;;;7.32;6.30;;;23.60;99.90;;;;;;5050018;28;20036;-51
2023/05/31 00:03:35;;;;;;;6.93;5.75;;;23.60;99.90;;;;;;5052896;28;20036;-46
2023/05/31 00:06:01;;;;;;;10.55;6.28;;;23.50;99.90;;;;;;5050306;28;20530;-49
2023/05/31 00:08:27;;;;;;;8.15;5.72;;;23.50;99.90;;;;;;5050808;28;20355;-48
2023/05/31 00:10:52;;;;;;;7.03;5.18;;;23.40;99.90;;;;;;5048287;28;20043;-51
2023/05/31 00:13:18;;;;;;;6.97;5.20;;;23.40;99.90;;;;;;5052557;28;20477;-50
2023/05/31 00:16:09;;;;;;;6.90;4.55;;;23.30;99.90;;;;;;5050705;28;20474;-50
2023/05/31 00:18:35;;;;;;;6.68;4.78;;;23.30;99.90;;;;;;5050162;28;20021;-50
2023/05/31 00:21:02;;;;;;;5.22;4.63;;;23.30;99.90;;;;;;5043754;28;20475;-47
2023/05/31 00:23:27;;;;;;;4.95;4.00;;;23.30;99.90;;;;;;5044369;28;20037;-47
2023/05/31 00:25:53;;;;;;;6.07;4.70;;;23.10;99.90;;;;;;5047858;28;20044;-46
2023/05/31 00:28:19;;;;;;;5.45;4.45;;;23.20;99.90;;;;;;5051015;28;20052;-46
2023/05/31 00:30:47;;;;;;;5.13;3.70;;;23.20;99.90;;;;;;5051357;28;20072;-54
2023/05/31 00:33:13;;;;;;;4.53;3.63;;;23.10;99.90;;;;;;5056782;28;20417;-51
2023/05/31 00:35:39;;;;;;;6.55;4.10;;;23.00;99.90;;;;;;5053565;28;20025;-53
2023/05/31 00:38:05;;;;;;;6.45;4.75;;;23.00;99.90;;;;;;5056638;28;20037;-51
2023/05/31 00:40:32;;;;;;;5.68;4.13;;;22.90;99.90;;;;;;5053253;28;20044;-50
2023/05/31 00:42:57;;;;;;;4.78;4.32;;;22.90;99.90;;;;;;5055245;28;20025;-49
2023/05/31 00:45:23;;;;;;;7.00;4.35;;;22.90;99.90;;;;;;5054168;28;20451;-50
2023/05/31 00:47:50;;;;;;;5.60;4.68;;;23.00;99.90;;;;;;5052832;28;20035;-52
2023/05/31 00:53:38;;;;;;;4.20;3.67;;;23.00;99.90;;;;;;5055147;28;20060;-48
2023/05/31 00:56:04;;;;;;;3.92;3.40;;;22.90;99.90;;;;;;5053402;28;20121;-50
2023/05/31 01:01:55;;;;;;;4.53;4.10;;;22.90;99.90;;;;;;5046865;28;20146;-47
2023/05/31 01:04:21;;;;;;;7.15;4.35;;;22.80;99.90;;;;;;5048158;28;20433;-47
2023/05/31 01:06:49;;;;;;;5.32;4.47;;;22.60;99.90;;;;;;5050840;28;20060;-50
2023/05/31 01:09:16;;;;;;;4.65;3.90;;;22.70;99.90;;;;;;5052211;28;20477;-47
2023/05/31 01:11:48;;;;;;;4.85;3.95;;;22.70;99.90;;;;;;5053348;28;20025;-46
2023/05/31 01:14:45;;;;;;;5.68;4.40;;;22.70;99.90;;;;;;5051494;28;20402;-47
2023/05/31 01:17:34;;;;;;;6.13;4.25;;;22.70;99.90;;;;;;5050755;28;20029;-50
2023/05/31 01:20:03;;;;;;;5.82;4.53;;;22.70;99.90;;;;;;5037904;28;20033;-46
2023/05/31 01:23:08;;;;;;;6.05;4.65;;;22.60;1.00;;;;;;5052828;28;20485;-46
2023/05/31 01:25:57;;;;;;;5.95;4.80;;;22.70;1.00;;;;;;5034254;28;20025;-47
2023/05/31 01:28:29;;;;;;;6.75;4.85;;;22.60;1.00;;;;;;5041459;28;20033;-48
2023/05/31 01:31:01;;;;;;;7.60;4.93;;;22.60;1.00;;;;;;5048091;28;20041;-47
2023/05/31 01:33:27;;;;;;;7.30;4.70;;;22.60;1.00;;;;;;5048225;28;20096;-47
2023/05/31 01:35:53;;;;;;;6.88;4.85;;;22.60;1.00;;;;;;5047505;28;20033;-45
2023/05/31 01:38:19;;;;;;;5.60;4.93;;;22.60;1.00;;;;;;5052239;28;20431;-48
2023/05/31 01:40:45;;;;;;;6.53;5.80;;;22.60;1.00;;;;;;5050762;28;20028;-50
2023/05/31 01:43:56;;;;;;;5.53;4.97;;;22.60;1.00;;;;;;5051727;28;20045;-50
2023/05/31 01:46:22;;;;;;;5.05;4.55;;;22.60;1.00;;;;;;5050727;28;20140;-48
2023/05/31 01:48:48;;;;;;;6.85;5.03;;;22.60;1.00;;;;;;5051378;28;20117;-48
2023/05/31 01:51:15;;;;;;;5.68;5.03;;;22.60;1.00;;;;;;5040948;28;20136;-49
2023/05/31 01:53:41;;;;;;;7.18;5.78;;;22.60;1.00;;;;;;5051489;28;20017;-46
2023/05/31 01:56:09;;;;;;;7.72;5.40;;;22.60;1.00;;;;;;5051951;28;20789;-46
2023/05/31 01:58:48;;;;;;;6.80;5.70;;;22.60;1.00;;;;;;5049332;28;20111;-46
2023/05/31 02:01:16;;;;;;;6.28;5.57;;;22.60;1.00;;;;;;5050446;28;20043;-47
2023/05/31 02:03:42;;;;;;;7.70;5.68;;;22.60;1.00;;;;;;5044088;28;20519;-47
2023/05/31 02:06:12;;;;;;;7.88;6.72;;;22.50;1.00;;;;;;5049467;28;20052;-49
2023/05/31 02:08:38;;;;;;;7.97;6.43;;;22.60;1.00;;;;;;5047050;28;20034;-50
2023/05/31 02:11:04;;;;;;;8.43;6.10;;;22.60;1.00;;;;;;5049211;28;20071;-49
2023/05/31 02:13:31;;;;;;;6.88;6.05;;;22.50;1.00;;;;;;5051677;28;20358;-47
2023/05/31 02:15:57;;;;;;;6.80;6.10;;;22.60;1.00;;;;;;5050115;28;20111;-50
2023/05/31 02:18:26;;;;;;;7.95;6.65;;;22.60;1.00;;;;;;5050277;28;20028;-48
2023/05/31 02:20:52;;;;;;;9.55;6.75;;;22.40;1.00;;;;;;5050475;28;20025;-50
2023/05/31 02:23:19;;;;;;;7.70;6.75;;;22.50;1.00;;;;;;5052094;28;20164;-46
2023/05/31 02:25:46;;;;;;;7.53;6.72;;;22.50;1.00;;;;;;5049400;28;20071;-47
2023/05/31 02:28:12;;;;;;;8.43;6.47;;;22.50;1.00;;;;;;5050320;28;20104;-47
2023/05/31 02:30:38;;;;;;;9.63;7.18;;;22.40;1.00;;;;;;5048680;28;20175;-46
2023/05/31 02:33:04;;;;;;;9.57;7.45;;;22.40;1.00;;;;;;5051600;28;20010;-46
2023/05/31 02:35:30;;;;;;;9.02;7.43;;;22.40;1.00;;;;;;5047660;28;20114;-48
2023/05/31 02:37:56;;;;;;;11.13;7.53;;;22.50;1.00;;;;;;5051425;28;20060;-48
2023/05/31 02:40:21;;;;;;;9.68;7.40;;;22.50;1.00;;;;;;5050342;28;20044;-46
2023/05/31 02:42:50;;;;;;;7.57;6.78;;;22.40;1.00;;;;;;5051736;28;20013;-48
2023/05/31 02:45:16;;;;;;;8.30;6.60;;;22.50;1.00;;;;;;5050743;28;20044;-50
2023/05/31 02:47:42;;;;;;;8.32;6.70;;;22.40;1.00;;;;;;5048280;28;20033;-45
2023/05/31 02:50:09;;;;;;;7.82;6.68;;;22.50;1.00;;;;;;5047592;28;20536;-48
2023/05/31 02:52:35;;;;;;;6.72;5.85;;;22.50;1.00;;;;;;5051240;28;20029;-48
2023/05/31 02:55:05;;;;;;;7.43;5.50;;;22.40;1.00;;;;;;5050205;28;20086;-46
2023/05/31 02:57:31;;;;;;;6.18;5.22;;;22.50;1.00;;;;;;5051575;28;20021;-48
2023/05/31 03:00:10;;;;;;;6.30;5.55;;;22.50;1.00;;;;;;5048769;28;20052;-48
2023/05/31 03:02:37;;;;;;;7.80;5.38;;;22.40;1.00;;;;;;5043860;28;20116;-52
2023/05/31 03:05:04;;;;;;;8.73;5.55;;;22.40;1.00;;;;;;5049021;28;20026;-51
2023/05/31 03:07:30;;;;;;;6.68;5.38;;;22.40;1.00;;;;;;5044648;28;20026;-51
2023/05/31 03:09:56;;;;;;;7.78;5.35;;;22.40;1.00;;;;;;5049495;28;20048;-54
2023/05/31 03:12:22;;;;;;;8.50;5.38;;;22.40;1.00;;;;;;5052155;28;20029;-51
2023/05/31 03:14:48;;;;;;;5.85;5.25;;;22.40;1.00;;;;;;5051251;28;20037;-50
2023/05/31 03:17:14;;;;;;;8.90;5.97;;;22.30;1.00;;;;;;5049666;28;20374;-53
2023/05/31 03:19:40;;;;;;;9.52;6.22;;;22.30;1.00;;;;;;5041759;28;20520;-51
2023/05/31 03:22:06;;;;;;;6.97;5.45;;;22.20;1.00;;;;;;5052414;28;20104;-52
2023/05/31 03:24:32;;;;;;;5.70;5.10;;;22.20;1.00;;;;;;5051271;28;20041;-49
2023/05/31 03:26:57;;;;;;;6.93;5.43;;;22.10;1.00;;;;;;5051870;28;20051;-50
2023/05/31 03:29:42;;;;;;;6.07;5.32;;;22.10;1.00;;;;;;5045315;28;20493;-52
2023/05/31 03:32:09;;;;;;;6.30;5.70;;;22.00;1.00;;;;;;5049919;28;20082;-51
2023/05/31 03:34:35;;;;;;;6.95;5.47;;;22.00;1.00;;;;;;5050870;28;20098;-52
2023/05/31 03:37:02;;;;;;;6.40;5.53;;;21.70;1.00;;;;;;5049819;28;20044;-49
2023/05/31 03:39:28;;;;;;;6.68;5.93;;;21.70;1.00;;;;;;5051692;28;20037;-50
2023/05/31 03:41:53;;;;;;;7.20;5.70;;;21.80;1.00;;;;;;5049617;28;20044;-53
2023/05/31 03:44:19;;;;;;;8.15;5.85;;;21.80;1.00;;;;;;5051390;28;20018;-48
2023/05/31 03:46:45;;;;;;;9.23;5.45;;;21.80;1.00;;;;;;5050827;28;20033;-47
2023/05/31 03:49:10;;;;;;;6.75;5.38;;;21.70;1.00;;;;;;5051348;28;20108;-50
2023/05/31 03:51:36;;;;;;;6.60;5.93;;;21.60;1.00;;;;;;5048237;28;20123;-53
2023/05/31 03:54:02;;;;;;;6.07;5.47;;;21.60;1.00;;;;;;5051582;28;20474;-48
2023/05/31 03:56:28;;;;;;;6.65;5.55;;;21.60;1.00;;;;;;5050378;28;20387;-48
2023/05/31 03:58:53;;;;;;;6.65;5.75;;;21.60;1.00;;;;;;5050415;28;20079;-52
2023/05/31 04:01:19;;;;;;;5.95;5.43;;;21.60;1.00;;;;;;5039516;28;20038;-48
2023/05/31 04:03:45;;;;;;;6.32;5.72;;;21.60;1.00;;;;;;5033949;28;20360;-48
2023/05/31 04:06:10;;;;;;;6.25;5.43;;;21.60;1.00;;;;;;5045933;28;20036;-49
2023/05/31 04:08:36;;;;;;;5.88;5.28;;;21.50;1.00;;;;;;5034913;28;20037;-50
2023/05/31 04:11:02;;;;;;;7.93;5.70;;;21.60;1.00;;;;;;5051600;28;20040;-48
2023/05/31 04:13:28;;;;;;;6.80;6.10;;;21.50;1.00;;;;;;5053154;28;20025;-48
2023/05/31 04:15:54;;;;;;;6.50;5.60;;;21.50;1.00;;;;;;5050497;28;20386;-46
2023/05/31 04:18:20;;;;;;;7.35;5.93;;;21.40;1.00;;;;;;5052092;28;20029;-47
2023/05/31 04:20:45;;;;;;;6.47;5.10;;;21.30;1.00;;;;;;5050242;28;20482;-46
2023/05/31 04:23:11;;;;;;;7.25;5.68;;;21.20;1.00;;;;;;5048268;28;20021;-53
2023/05/31 04:25:36;;;;;;;6.32;5.68;;;21.20;1.00;;;;;;5052449;28;20103;-48
2023/05/31 04:28:06;;;;;;;6.28;5.65;;;21.10;1.00;;;;;;5053003;28;20020;-52
2023/05/31 04:30:31;;;;;;;6.90;6.07;;;21.20;1.00;;;;;;5049214;28;20040;-51
2023/05/31 04:32:58;;;;;;;6.38;5.45;;;21.20;1.00;;;;;;5049953;28;20120;-52
2023/05/31 04:35:28;;;;;;;6.47;5.68;;;21.20;1.00;;;;;;5044109;28;20374;-51
2023/05/31 04:37:58;;;;;;;8.15;6.18;;;21.20;1.00;;;;;;5052574;28;20020;-49
2023/05/31 04:40:25;;;;;;;8.38;6.05;;;21.20;1.00;;;;;;5050601;28;20082;-51
2023/05/31 04:42:53;;;;;;;8.52;5.97;;;21.10;1.00;;;;;;5052924;28;20458;-50
2023/05/31 04:45:19;;;;;;;7.47;5.93;;;21.20;1.00;;;;;;5048600;28;20036;-50
2023/05/31 04:47:46;;;;;;;6.85;5.85;;;21.20;1.00;;;;;;5032998;28;20032;-52
2023/05/31 04:50:12;;;;;;;8.65;6.10;;;21.20;1.00;;;;;;5049632;28;20075;-46
2023/05/31 04:52:40;;;;;;;6.25;5.65;;;21.20;1.00;;;;;;5052550;28;20060;-48
2023/05/31 04:55:06;;;;;;;8.20;6.25;;;21.20;1.00;;;;;;5051382;28;20029;-46
2023/05/31 04:57:32;;;;;;;6.70;6.03;;;21.20;1.00;;;;;;5050996;28;20029;-46
2023/05/31 04:59:58;;;;;;;9.10;5.65;;;21.10;1.00;;;;;;5049697;28;20506;-48
2023/05/31 05:02:26;;;;;;;7.78;6.30;;;21.10;1.00;;;;;;5052730;28;20021;-49
2023/05/31 05:04:52;;;;;;;8.00;6.05;;;21.10;1.00;;;;;;5049840;28;20474;-50
2023/05/31 05:07:18;;;;;;;7.95;6.07;;;21.10;1.00;;;;;;5051775;28;20037;-51
2023/05/31 05:09:44;;;;;;;9.60;6.85;;;21.10;1.00;;;;;;5048480;28;20037;-51
2023/05/31 05:12:10;;;;;;;8.23;5.97;;;21.10;1.00;;;;;;5050291;28;20558;-49
2023/05/31 05:14:36;;;;;;;7.13;5.43;;;21.10;1.00;;;;;;5052655;28;20025;-51
2023/05/31 05:17:02;;;;;;;7.28;6.15;;;21.10;1.00;;;;;;5051631;28;20493;-52
2023/05/31 05:19:27;;;;;;;8.50;6.00;;;21.10;1.00;;;;;;5052723;28;20124;-48
2023/05/31 05:21:54;;;;;;;7.63;5.85;;;21.10;1.00;;;;;;5055551;28;20025;-50
2023/05/31 05:24:22;;;;;;;8.32;6.55;;;21.10;1.00;;;;;;5055348;28;20033;-51
2023/05/31 05:26:48;;;;;;;8.43;5.75;;;21.10;1.00;;;;;;5056124;28;20032;-51
2023/05/31 05:29:14;;;;;;;6.78;5.65;;;21.10;1.00;;;;;;5053380;28;20431;-51
2023/05/31 05:31:39;;;;;;;6.97;5.18;;;21.10;1.00;;;;;;5053510;28;20355;-48
2023/05/31 05:34:05;;;;;;;6.25;5.63;;;21.10;1.00;;;;;;5054451;28;20017;-51
2023/05/31 05:36:31;;;;;;;8.35;5.55;;;21.10;1.00;;;;;;5051571;28;20363;-51
2023/05/31 05:39:03;;;;;;;9.52;5.75;;;21.00;1.00;;;;;;5055614;28;20072;-50
2023/05/31 05:41:30;;;;;;;6.15;5.32;;;21.10;1.00;;;;;;5053372;28;20033;-50
2023/05/31 05:43:55;;;;;;;7.15;5.50;;;21.10;1.00;;;;;;5055603;28;20027;-48
2023/05/31 05:46:21;;;;;;;6.88;5.82;;;21.10;1.00;;;;;;5047103;28;20395;-49
2023/05/31 05:48:46;;;;;;;8.65;5.72;;;21.10;1.00;;;;;;5055545;28;20035;-53
2023/05/31 05:51:43;;;;;;;6.13;5.53;;;21.10;1.00;;;;;;5050062;28;20681;-46
2023/05/31 05:54:08;;;;;;;5.70;5.15;;;21.10;1.00;;;;;;5035173;28;20137;-46
2023/05/31 05:56:34;;;;;;;6.40;5.15;;;21.20;1.00;;;;;;5053695;28;20178;-46
2023/05/31 05:59:00;;;;;;;6.03;5.43;;;21.20;1.00;;;;;;5053331;28;20044;-47
2023/05/31 06:01:26;;;;;;;5.93;5.32;;;21.20;1.00;;;;;;5053725;28;20174;-50
2023/05/31 06:04:17;;;;;;;6.45;5.57;;;21.30;1.00;;;;;;5049229;28;20029;-51
2023/05/31 06:06:43;;;;;;;5.70;5.07;;;21.30;1.00;;;;;;5038769;28;20386;-52
2023/05/31 06:09:08;;;;;;;6.90;5.75;;;21.30;1.00;;;;;;5052092;28;20029;-52
2023/05/31 06:11:34;;;;;;;6.60;5.13;;;21.30;1.00;;;;;;5053606;28;20406;-52
2023/05/31 06:14:25;;;;;;;6.47;5.10;;;21.30;1.00;;;;;;5054293;28;20036;-52
2023/05/31 06:16:51;;;;;;;8.68;5.50;;;21.30;1.00;;;;;;5048133;28;20017;-47
2023/05/31 06:19:16;;;;;;;7.00;5.32;;;21.40;1.00;;;;;;5053436;28;20462;-46
2023/05/31 06:21:42;;;;;;;9.43;6.30;;;21.40;1.00;;;;;;5052666;28;20017;-47
2023/05/31 06:24:08;;;;;;;7.57;6.20;;;21.40;1.00;;;;;;5054584;28;20025;-48
2023/05/31 06:26:35;;;;;;;8.65;6.03;;;21.50;1.00;;;;;;5047048;28;20478;-49
2023/05/31 06:29:01;;;;;;;8.75;5.68;;;21.50;1.00;;;;;;5054213;28;20036;-46
2023/05/31 06:31:27;;;;;;;8.90;5.28;;;21.50;1.00;;;;;;5053699;28;20033;-52
2023/05/31 06:33:53;;;;;;;7.03;5.60;;;21.60;1.00;;;;;;5054414;28;20020;-48
2023/05/31 06:36:18;;;;;;;6.50;5.28;;;21.60;1.00;;;;;;5044414;28;20427;-49
2023/05/31 06:38:46;;;;;;;10.57;5.40;;;21.60;1.00;;;;;;5045578;28;20450;-48
2023/05/31 06:41:12;;;;;;;12.82;5.38;;;21.50;1.00;;;;;;5038634;28;20030;-49
2023/05/31 06:43:38;;;;;;;7.13;5.22;;;21.60;1.00;;;;;;5052067;28;20044;-47
2023/05/31 06:46:07;;;;;;;9.25;5.55;;;21.60;1.00;;;;;;5050407;28;20021;-47
2023/05/31 06:48:33;;;;;;;9.68;6.15;;;21.70;1.00;;;;;;5052180;28;20087;-49
2023/05/31 06:50:59;;;;;;;6.47;5.72;;;21.70;1.00;;;;;;5048334;28;20072;-48
2023/05/31 06:53:25;;;;;;;9.85;6.15;;;21.80;1.00;;;;;;5048254;28;20064;-51
2023/05/31 06:55:51;;;;;;;7.22;5.97;;;21.80;1.00;;;;;;5047189;28;20041;-48
2023/05/31 06:58:17;;;;;;;7.18;5.88;;;21.70;1.00;;;;;;5049936;28;20025;-50
2023/05/31 07:00:43;;;;;;;7.53;5.82;;;21.70;1.00;;;;;;5050309;28;20063;-47
2023/05/31 07:03:08;;;;;;;6.93;6.07;;;21.80;1.00;;;;;;5053697;28;20052;-43
2023/05/31 07:05:34;;;;;;;8.43;5.72;;;21.80;1.00;;;;;;5051579;28;20095;-47
2023/05/31 07:08:00;;;;;;;8.57;5.97;;;21.80;1.00;;;;;;5054026;28;20025;-47
2023/05/31 07:10:27;;;;;;;8.68;5.75;;;21.90;1.00;;;;;;5050442;28;20045;-45
2023/05/31 07:12:53;;;;;;;6.80;5.72;;;22.00;1.00;;;;;;5050681;28;20482;-46
2023/05/31 07:15:19;;;;;;;6.55;5.85;;;22.00;1.00;;;;;;5047951;28;20485;-44
2023/05/31 07:17:45;;;;;;;9.10;6.47;;;22.00;1.00;;;;;;5053636;28;20025;-48
2023/05/31 07:20:11;;;;;;;6.47;5.38;;;22.10;1.00;;;;;;5052604;28;20035;-48
2023/05/31 07:22:37;;;;;;;12.48;6.63;;;22.20;1.00;;;;;;5053787;28;20021;-47
2023/05/31 07:25:04;;;;;;;9.30;5.40;;;22.30;1.00;;;;;;5051818;28;20388;-46
2023/05/31 07:27:31;;;;;;;11.65;6.15;;;22.30;1.00;;;;;;5050164;28;20031;-44
2023/05/31 07:29:56;;;;;;;10.45;6.57;;;22.40;1.00;;;;;;5053465;28;20086;-46
2023/05/31 07:32:22;;;;;;;10.90;7.15;;;22.40;1.00;;;;;;5052307;28;20470;-47
2023/05/31 07:34:48;;;;;;;8.20;5.97;;;22.40;1.00;;;;;;5052531;28;20469;-49
2023/05/31 07:37:14;;;;;;;6.03;5.32;;;22.30;1.00;;;;;;5051498;28;20388;-47
2023/05/31 07:39:40;;;;;;;10.13;7.25;;;22.50;1.00;;;;;;5047751;28;20060;-46
2023/05/31 07:42:06;;;;;;;10.13;5.95;;;22.40;1.00;;;;;;5052258;28;20474;-44
2023/05/31 07:44:31;;;;;;;8.65;5.90;;;22.50;1.00;;;;;;5045694;28;20494;-46
2023/05/31 07:46:57;;;;;;;10.45;6.68;;;22.60;1.00;;;;;;5051895;28;20143;-42
2023/05/31 07:49:23;;;;;;;9.27;6.43;;;22.70;1.00;;;;;;5049790;28;20450;-46
2023/05/31 07:51:48;;;;;;;7.25;5.75;;;22.60;1.00;;;;;;5038994;28;20033;-44
2023/05/31 07:54:14;;;;;;;8.90;6.15;;;22.60;1.00;;;;;;5035343;28;20026;-45
2023/05/31 07:56:40;;;;;;;8.98;6.43;;;22.70;1.00;;;;;;5051223;28;20501;-48
2023/05/31 07:59:06;;;;;;;8.77;5.95;;;22.80;1.00;;;;;;5050475;28;20492;-46
2023/05/31 08:01:33;;;;;;;10.65;6.57;;;22.80;1.00;;;;;;5051323;28;20025;-45
2023/05/31 08:04:06;;;;;;;8.98;6.72;;;22.80;1.00;;;;;;5050681;28;20032;-50
2023/05/31 08:06:32;;;;;;;8.60;6.63;;;22.80;1.00;;;;;;5051700;28;20030;-45
2023/05/31 08:08:58;;;;;;;9.45;7.25;;;22.90;1.00;;;;;;5052793;28;20021;-43
2023/05/31 08:11:25;;;;;;;8.55;6.93;;;22.90;1.00;;;;;;5048295;28;20040;-47
2023/05/31 08:13:51;;;;;;;9.40;6.90;;;23.00;1.00;;;;;;5050146;28;20025;-48
2023/05/31 08:16:17;;;;;;;8.95;5.80;;;22.90;1.00;;;;;;5048792;28;20020;-47
2023/05/31 08:18:43;;;;;;;12.57;6.40;;;22.90;1.00;;;;;;5049129;28;20422;-44
2023/05/31 08:21:10;;;;;;;6.63;5.07;;;22.80;1.00;;;;;;5047661;28;20021;-42
2023/05/31 08:23:36;;;;;;;6.90;6.20;;;22.90;1.00;;;;;;5050637;28;20029;-47
2023/05/31 08:26:02;;;;;;;7.78;5.25;;;22.90;1.00;;;;;;5052658;28;20035;-45
2023/05/31 08:28:29;;;;;;;7.50;4.80;;;23.00;1.00;;;;;;5051311;28;20486;-45
2023/05/31 08:30:55;;;;;;;5.80;4.95;;;22.80;1.00;;;;;;5048080;28;20043;-51
2023/05/31 08:33:21;;;;;;;7.07;5.65;;;22.80;1.00;;;;;;5053355;28;20025;-48
2023/05/31 08:35:46;;;;;;;7.82;5.05;;;22.80;1.00;;;;;;5054512;28;20017;-47
2023/05/31 08:38:12;;;;;;;8.63;5.20;;;22.80;1.00;;;;;;5051776;28;20076;-46
2023/05/31 08:40:39;;;;;;;6.78;4.80;;;22.70;1.00;;;;;;5054547;28;20025;-44
2023/05/31 08:43:15;;;;;;;6.03;4.57;;;22.70;1.00;;;;;;5048565;28;20483;-44
2023/05/31 08:45:43;;;;;;;8.77;5.47;;;22.80;1.00;;;;;;5048029;28;20025;-47
2023/05/31 08:48:28;;;;;;;7.35;4.60;;;22.80;1.00;;;;;;5040831;28;20025;-56
2023/05/31 08:50:55;;;;;;;6.95;5.38;;;22.80;1.00;;;;;;5050382;28;20089;-51
2023/05/31 08:53:25;;;;;;;6.22;5.22;;;22.80;1.00;;;;;;5054321;28;20048;-58
2023/05/31 08:55:53;;;;;;;7.75;4.85;;;22.70;1.00;;;;;;5059099;28;20465;-57
2023/05/31 08:58:19;;;;;;;6.40;5.45;;;22.80;1.00;;;;;;5057981;28;20555;-56
2023/05/31 09:00:46;;;;;;;7.65;5.45;;;22.90;1.00;;;;;;5049207;28;20025;-54
2023/05/31 09:03:12;;;;;;;6.55;4.78;;;23.00;1.00;;;;;;5054954;28;20513;-54
2023/05/31 09:05:38;;;;;;;6.50;5.55;;;23.00;1.00;;;;;;5043029;28;20513;-50
2023/05/31 09:08:03;;;;;;;6.28;5.07;;;23.00;1.00;;;;;;5054307;28;20021;-48
2023/05/31 09:10:30;;;;;;;6.78;5.20;;;23.00;1.00;;;;;;5057523;28;20056;-45
2023/05/31 09:12:56;;;;;;;6.40;5.45;;;23.00;1.00;;;;;;5055708;28;20013;-47
2023/05/31 09:15:25;;;;;;;5.18;4.63;;;23.00;1.00;;;;;;5058769;28;20103;-52
2023/05/31 09:17:52;;;;;;;6.25;4.85;;;23.10;1.00;;;;;;5048931;28;20029;-46
2023/05/31 09:20:29;;;;;;;6.38;4.50;;;23.10;1.00;;;;;;5055830;28;20044;-49
2023/05/31 09:22:55;;;;;;;6.50;4.53;;;23.10;1.00;;;;;;5055242;28;20017;-46
2023/05/31 09:25:21;;;;;;;6.57;4.63;;;23.20;1.00;;;;;;5054054;28;20103;-48
2023/05/31 09:27:46;;;;;;;7.43;4.85;;;23.20;1.00;;;;;;5057141;28;20017;-55
2023/05/31 09:30:14;;;;;;;6.53;4.65;;;23.20;1.00;;;;;;5054713;28;20139;-60
2023/05/31 09:32:40;;;;;;;6.32;4.35;;;23.20;1.00;;;;;;5052649;28;20347;-60
2023/05/31 09:35:17;;;;;;;6.57;5.40;;;23.40;1.00;;;;;;5051194;28;20066;-58
2023/05/31 09:37:47;;;;;;;8.75;4.85;;;23.40;99.90;;;;;;5053461;28;20082;-60
2023/05/31 09:40:15;;;;;;;7.38;4.78;;;23.50;99.90;;;;;;5055666;28;20073;-68
2023/05/31 09:42:48;;;;;;;5.32;4.78;;;23.50;99.90;;;;;;5058021;28;20036;-61
2023/05/31 09:45:14;;;;;;;6.00;4.78;;;23.60;99.90;;;;;;5051265;28;20029;-52
2023/05/31 09:47:40;;;;;;;6.22;5.03;;;23.60;99.90;;;;;;5055287;28;20351;-67
2023/05/31 09:50:09;;;;;;;6.18;4.88;;;23.60;99.90;;;;;;5051654;28;20036;-67
2023/05/31 09:52:38;;;;;;;10.63;5.25;;;23.60;99.90;;;;;;5055039;28;20066;-66
2023/05/31 09:55:08;;;;;;;6.45;5.80;;;23.70;99.90;;;;;;5052534;28;20486;-65
2023/05/31 09:57:43;;;;;;;7.38;5.47;;;23.80;99.90;;;;;;5079024;28;20029;-64
2023/05/31 10:00:20;;;;;;;6.68;4.50;;;23.70;99.90;;;;;;5047696;28;20419;-63
2023/05/31 10:02:48;;;;;;;5.25;4.75;;;23.80;99.90;;;;;;5046175;28;20025;-64
2023/05/31 10:05:15;;;;;;;7.65;4.68;;;23.90;99.90;;;;;;5053585;28;20040;-54
2023/05/31 10:07:51;;;;;;;4.95;4.40;;;24.00;99.90;;;;;;5053654;28;20135;-61
2023/05/31 10:10:20;;;;;;;5.72;5.03;;;24.10;99.90;;;;;;5052531;28;20043;-55
2023/05/31 10:12:58;;;;;;;6.47;4.18;;;24.20;99.90;;;;;;5052324;28;20028;-47
2023/05/31 10:15:26;;;;;;;7.97;4.55;;;24.30;99.90;;;;;;5052270;28;20025;-69
2023/05/31 10:17:58;;;;;;;6.43;4.50;;;24.30;99.90;;;;;;5054697;28;20040;-64
2023/05/31 10:20:29;;;;;;;10.63;6.30;;;24.40;99.90;;;;;;5050844;28;20040;-60
2023/05/31 10:23:00;;;;;;;5.80;4.65;;;24.50;99.90;;;;;;5049739;28;20029;-60
2023/05/31 10:25:31;;;;;;;7.32;5.15;;;24.60;99.90;;;;;;5038889;28;20033;-60
2023/05/31 10:28:01;;;;;;;4.50;4.03;;;24.60;99.90;;;;;;5052155;28;20025;-60
2023/05/31 10:30:31;;;;;;;6.25;4.53;;;24.70;99.90;;;;;;5054231;28;20025;-61
2023/05/31 10:33:05;;;;;;;8.25;4.85;;;24.80;99.90;;;;;;5045699;28;20026;-57
2023/05/31 10:35:31;;;;;;;7.55;5.70;;;24.90;99.90;;;;;;5040971;28;20036;-62
2023/05/31 10:37:58;;;;;;;5.10;4.57;;;25.00;99.90;;;;;;5045517;28;20021;-59
2023/05/31 10:40:42;;;;;;;8.70;6.05;;;25.20;99.90;;;;;;5045979;28;20122;-59
2023/05/31 10:43:26;;;;;;;;;;;25.40;99.90;;;;;;5050650;28;20048;-59
2023/05/31 10:45:59;;;;;;;8.80;6.40;;;25.70;99.90;;;;;;5044118;28;19905;-59
2023/05/31 10:48:53;;;;;;;23.42;10.38;;;25.60;99.90;;;;;;5052700;28;20025;-58
2023/05/31 10:51:19;;;;;;;13.68;8.48;;;25.60;99.90;;;;;;5052404;28;20047;-59
2023/05/31 10:53:49;;;;;;;13.45;7.82;;;25.80;99.90;;;;;;5054008;28;20190;-59
2023/05/31 10:56:15;;;;;;;14.82;8.35;;;26.10;99.90;;;;;;5049130;28;20039;-59
2023/05/31 10:58:47;;;;;;;9.57;5.90;;;26.20;99.90;;;;;;5049748;28;20032;-59
2023/05/31 11:01:24;;;;;;;12.00;5.57;;;26.50;99.90;;;;;;5050315;28;20033;-59
2023/05/31 11:03:53;;;;;;;8.40;5.47;;;26.80;99.90;;;;;;5041376;28;20047;-58
2023/05/31 11:06:36;;;;;;;7.68;5.43;;;26.80;99.90;;;;;;5051818;28;20041;-59
2023/05/31 11:09:15;;;;;;;15.88;9.38;;;26.70;99.90;;;;;;5047993;28;20076;-59
2023/05/31 11:11:41;;;;;;;11.75;6.70;;;26.70;99.90;;;;;;5051703;28;20045;-59
2023/05/31 11:14:09;;;;;;;9.27;7.22;;;26.70;99.90;;;;;;5053593;28;20024;-59
2023/05/31 11:16:45;;;;;;;7.65;6.60;;;26.80;99.90;;;;;;5042345;28;20116;-59
2023/05/31 11:19:15;;;;;;;8.57;5.88;;;27.00;99.90;;;;;;5053991;28;20082;-59
2023/05/31 11:21:50;;;;;;;7.78;6.97;;;27.10;99.90;;;;;;5037229;28;20083;-59
2023/05/31 11:24:39;;;;;;;6.80;5.82;;;27.00;99.90;;;;;;5039854;28;20048;-59
2023/05/31 11:27:10;;;;;;;7.13;6.03;;;27.00;99.90;;;;;;5051786;28;20555;-58
2023/05/31 11:29:44;;;;;;;7.35;6.50;;;27.20;99.90;;;;;;5053594;28;20033;-58
2023/05/31 11:32:11;;;;;;;7.13;6.43;;;27.10;99.90;;;;;;5048490;28;20033;-59
2023/05/31 11:34:53;;;;;;;7.82;6.80;;;27.30;99.90;;;;;;5052468;28;20098;-59
2023/05/31 11:37:21;;;;;;;8.60;6.07;;;27.60;99.90;;;;;;5050070;28;20033;-58
2023/05/31 11:39:47;;;;;;;10.65;6.65;;;27.90;99.90;;;;;;5049994;28;20506;-59
2023/05/31 11:42:14;;;;;;;7.30;6.40;;;28.10;99.90;;;;;;5050442;28;20071;-58
2023/05/31 11:44:45;;;;;;;8.20;7.45;;;28.40;99.90;;;;;;5051414;28;20037;-58
2023/05/31 11:47:23;;;;;;;8.52;7.28;;;28.80;99.90;;;;;;5053097;28;20031;-58
2023/05/31 11:49:49;;;;;;;8.32;7.35;;;29.10;99.90;;;;;;5050811;28;20115;-58
2023/05/31 11:52:17;;;;;;;6.60;5.70;;;29.20;99.90;;;;;;5051809;28;20123;-58
2023/05/31 11:54:45;;;;;;;7.28;6.55;;;29.60;99.90;;;;;;5052184;28;20138;-58
2023/05/31 11:57:12;;;;;;;10.23;7.32;;;30.20;99.90;;;;;;5048984;28;20504;-58
2023/05/31 11:59:39;;;;;;;7.60;5.95;;;30.70;99.90;;;;;;5052957;28;20543;-59
2023/05/31 12:02:06;;;;;;;6.60;5.45;;;30.80;99.90;;;;;;5050068;28;20071;-58
2023/05/31 12:04:39;;;;;;;8.95;7.00;;;31.10;99.90;;;;;;5049685;28;20601;-58
2023/05/31 12:07:10;;;;;;;7.97;7.28;;;31.60;99.90;;;;;;5051035;28;20108;-58
2023/05/31 12:09:36;;;;;;;6.93;6.13;;;32.80;99.90;;;;;;5052711;28;20033;-58
2023/05/31 12:12:05;;;;;;;7.72;6.57;;;34.60;99.90;;;;;;5050301;28;20155;-58
2023/05/31 12:14:31;;;;;;;9.10;6.70;;;36.10;99.90;;;;;;5050827;28;20032;-58
2023/05/31 12:17:04;;;;;;;9.77;7.65;;;35.90;99.90;;;;;;5051501;28;20039;-58
2023/05/31 12:19:31;;;;;;;10.05;6.72;;;35.50;99.90;;;;;;5038326;28;20470;-59
2023/05/31 12:21:58;;;;;;;7.50;6.80;;;36.50;99.90;;;;;;5045935;28;20030;-59
2023/05/31 12:24:23;;;;;;;7.38;6.18;;;37.70;99.90;;;;;;5045622;28;20018;-57
2023/05/31 12:26:49;;;;;;;8.65;6.60;;;38.50;99.90;;;;;;5053128;28;20059;-57
2023/05/31 12:29:16;;;;;;;6.80;6.10;;;38.20;99.90;;;;;;5055713;28;20048;-58
2023/05/31 12:31:42;;;;;;;7.95;7.15;;;37.20;99.90;;;;;;5054034;28;20037;-64
2023/05/31 12:34:17;;;;;;;7.70;6.95;;;35.40;99.90;;;;;;5056741;28;20033;-64
2023/05/31 12:36:45;;;;;;;7.35;6.70;;;34.70;99.90;;;;;;5055402;28;20036;-64
2023/05/31 12:39:24;;;;;;;7.93;6.30;;;34.20;99.90;;;;;;5056393;28;20056;-64
2023/05/31 12:41:50;;;;;;;6.40;5.68;;;34.10;99.90;;;;;;5054484;28;20025;-65
2023/05/31 12:44:23;;;;;;;7.75;6.97;;;34.00;99.90;;;;;;5056475;28;20032;-65
2023/05/31 12:46:57;;;;;;;8.90;7.97;;;33.20;99.90;;;;;;5053196;28;20037;-64
2023/05/31 12:49:26;;;;;;;8.25;6.95;;;32.80;99.90;;;;;;5056614;28;20064;-64
2023/05/31 12:52:09;;;;;;;8.98;6.07;;;32.50;99.90;;;;;;5054305;28;20453;-65
2023/05/31 12:54:55;;;;;;;9.47;6.83;;;32.70;99.90;;;;;;5052000;28;20498;-64
2023/05/31 12:57:21;;;;;;;11.07;7.25;;;31.80;99.90;;;;;;5045694;28;20504;-64
2023/05/31 12:59:57;;;;;;;9.00;7.85;;;31.30;99.90;;;;;;5049065;28;20121;-64
2023/05/31 13:02:23;;;;;;;8.68;7.75;;;31.00;99.90;;;;;;5043427;28;20102;-63
2023/05/31 13:04:48;;;;;;;9.85;7.60;;;31.00;99.90;;;;;;5054885;28;20520;-64
2023/05/31 13:07:14;;;;;;;8.40;7.35;;;31.10;99.90;;;;;;5042252;28;20027;-63